Time;durP1;ratioP1;P1;durP2;ratioP2;P2;SDS_P1;SDS_P2;PMS_P1;PMS_P2;Temp;Humidity;BMP_temperature;BMP_pressure;BME280_temperature;BME280_humidity;BME280_pressure;Samples;Min_cycle;Max_cycle;Signal;HPM_P1;HPM_P2
2022/11/08 00:01:45;;;;;;;147.85;67.93;;;8.50;99.90;;;;;;5102667;28;20067;-79
2022/11/08 00:04:15;;;;;;;107.45;58.03;;;8.50;99.90;;;;;;5103020;28;20066;-79
2022/11/08 00:15:12;;;;;;;72.43;45.45;;;8.20;99.90;;;;;;5101830;28;20438;-76
2022/11/08 00:17:40;;;;;;;72.30;46.25;;;8.20;99.90;;;;;;5110370;28;20102;-79
2022/11/08 00:20:09;;;;;;;89.10;52.70;;;8.30;99.90;;;;;;5113037;28;20040;-79
2022/11/08 00:22:36;;;;;;;95.15;54.88;;;8.40;99.90;;;;;;5112856;28;20039;-79
2022/11/08 00:25:04;;;;;;;76.13;47.85;;;8.40;99.90;;;;;;5103545;28;20090;-78
2022/11/08 00:27:33;;;;;;;80.80;46.15;;;8.40;99.90;;;;;;5081914;28;20055;-79
2022/11/08 00:30:00;;;;;;;74.80;43.03;;;8.50;99.90;;;;;;5101755;28;20498;-78
2022/11/08 00:32:27;;;;;;;70.93;42.15;;;8.60;99.90;;;;;;5100090;28;20483;-80
2022/11/08 00:34:55;;;;;;;71.72;42.50;;;8.60;99.90;;;;;;5102184;28;20040;-78
2022/11/08 00:37:22;;;;;;;127.80;51.58;;;8.60;99.90;;;;;;5082000;28;20052;-78
2022/11/08 00:39:50;;;;;;;102.88;50.75;;;8.50;99.90;;;;;;5098711;28;20036;-77
2022/11/08 00:42:17;;;;;;;94.95;49.70;;;8.50;99.90;;;;;;5101925;28;20043;-78
2022/11/08 00:44:46;;;;;;;94.95;48.28;;;8.50;99.90;;;;;;5086340;28;20047;-81
2022/11/08 00:47:13;;;;;;;81.55;45.40;;;8.40;99.90;;;;;;5100864;28;20043;-78
2022/11/08 00:49:40;;;;;;;76.90;44.47;;;8.30;99.90;;;;;;5101413;28;20070;-76
2022/11/08 00:52:08;;;;;;;77.32;43.60;;;8.30;99.90;;;;;;5101313;28;20109;-78
2022/11/08 00:54:35;;;;;;;72.53;42.50;;;8.30;99.90;;;;;;5101333;28;20059;-78
2022/11/08 00:57:02;;;;;;;67.38;39.85;;;8.30;99.90;;;;;;5101847;28;20081;-79
2022/11/08 00:59:30;;;;;;;68.35;40.00;;;8.40;99.90;;;;;;5101049;28;20040;-79
2022/11/08 01:01:58;;;;;;;63.78;38.38;;;8.50;99.90;;;;;;5100818;28;20059;-78
2022/11/08 01:04:26;;;;;;;60.95;36.05;;;8.60;99.90;;;;;;5098759;28;20106;-78
2022/11/08 01:06:53;;;;;;;62.22;38.65;;;8.60;99.90;;;;;;5081305;28;20173;-77
2022/11/08 01:09:20;;;;;;;60.55;37.45;;;8.60;99.90;;;;;;5100662;28;20038;-79
2022/11/08 01:11:47;;;;;;;65.55;36.85;;;8.60;99.90;;;;;;5099992;28;20063;-78
2022/11/08 01:14:15;;;;;;;67.35;37.58;;;8.60;99.90;;;;;;5100072;28;20040;-79
2022/11/08 01:16:44;;;;;;;64.05;37.53;;;8.40;99.90;;;;;;5100976;28;20093;-78
2022/11/08 01:19:12;;;;;;;64.72;37.70;;;8.40;99.90;;;;;;5100504;28;20032;-79
2022/11/08 01:21:40;;;;;;;66.63;36.72;;;8.40;99.90;;;;;;5100409;28;20036;-78
2022/11/08 01:24:07;;;;;;;64.10;35.90;;;8.30;99.90;;;;;;5101048;28;20117;-79
2022/11/08 01:26:35;;;;;;;70.55;37.72;;;8.30;99.90;;;;;;5097867;28;20059;-79
2022/11/08 01:29:02;;;;;;;73.43;40.00;;;8.30;99.90;;;;;;5100598;28;20067;-78
2022/11/08 01:31:31;;;;;;;122.70;48.08;;;8.30;99.90;;;;;;5100189;28;20048;-79
2022/11/08 01:33:59;;;;;;;82.85;43.13;;;8.30;99.90;;;;;;5100100;28;20048;-77
2022/11/08 01:36:28;;;;;;;81.82;41.47;;;8.20;99.90;;;;;;5098747;28;20126;-76
2022/11/08 01:38:56;;;;;;;97.47;44.60;;;8.20;99.90;;;;;;5098404;28;20040;-79
2022/11/08 01:41:26;;;;;;;71.47;40.65;;;8.20;99.90;;;;;;5099662;28;20036;-77
2022/11/08 01:43:54;;;;;;;86.93;43.47;;;8.20;99.90;;;;;;5099514;28;20035;-77
2022/11/08 01:46:38;;;;;;;81.72;40.55;;;8.10;99.90;;;;;;5100426;28;20032;-78
2022/11/08 01:49:20;;;;;;;81.70;42.40;;;8.10;99.90;;;;;;5099076;28;20093;-78
2022/11/08 01:51:53;;;;;;;135.20;42.58;;;8.10;99.90;;;;;;5098772;28;20136;-79
2022/11/08 01:54:24;;;;;;;87.13;38.63;;;8.00;99.90;;;;;;5100008;28;20501;-77
2022/11/08 01:56:52;;;;;;;74.70;41.13;;;7.90;99.90;;;;;;5100250;28;20055;-77
2022/11/08 01:59:20;;;;;;;157.40;44.25;;;8.00;99.90;;;;;;5099118;28;20051;-79
2022/11/08 02:01:48;;;;;;;85.47;39.90;;;8.00;99.90;;;;;;5098405;28;20036;-79
2022/11/08 02:04:17;;;;;;;86.57;38.72;;;8.00;99.90;;;;;;5099243;28;20036;-77
2022/11/08 02:06:44;;;;;;;96.68;39.58;;;8.00;99.90;;;;;;5099871;28;20035;-78
2022/11/08 02:09:16;;;;;;;82.85;36.92;;;8.00;99.90;;;;;;5099307;28;20039;-79
2022/11/08 02:11:46;;;;;;;81.10;35.95;;;7.90;99.90;;;;;;5099133;28;20040;-79
2022/11/08 02:14:15;;;;;;;75.85;37.55;;;7.80;99.90;;;;;;5099063;28;20051;-79
2022/11/08 02:16:42;;;;;;;83.50;39.20;;;7.80;99.90;;;;;;5099749;28;20036;-78
2022/11/08 02:19:15;;;;;;;91.13;40.60;;;7.80;99.90;;;;;;5098019;28;20036;-77
2022/11/08 02:21:51;;;;;;;71.85;38.70;;;7.70;99.90;;;;;;5097869;28;20044;-77
2022/11/08 02:24:20;;;;;;;71.72;39.28;;;7.70;99.90;;;;;;5096550;28;20177;-77
2022/11/08 02:26:49;;;;;;;78.90;36.53;;;7.80;99.90;;;;;;5099153;28;20048;-79
2022/11/08 02:29:34;;;;;;;63.72;36.45;;;7.80;99.90;;;;;;5098057;28;20040;-79
2022/11/08 02:32:03;;;;;;;97.00;38.95;;;7.80;99.90;;;;;;5098388;28;20047;-77
2022/11/08 02:34:34;;;;;;;81.13;38.30;;;7.70;99.90;;;;;;5099255;28;20028;-79
2022/11/08 02:37:03;;;;;;;74.07;37.75;;;7.60;99.90;;;;;;5098358;28;20495;-79
2022/11/08 02:39:31;;;;;;;72.22;36.33;;;7.70;99.90;;;;;;5098513;28;20032;-77
2022/11/08 02:41:59;;;;;;;86.10;38.47;;;7.70;99.90;;;;;;5081223;28;20043;-78
2022/11/08 02:44:26;;;;;;;69.90;37.78;;;7.60;99.90;;;;;;5099965;28;20471;-77
2022/11/08 02:46:54;;;;;;;84.72;37.88;;;7.60;99.90;;;;;;5099323;28;20044;-78
2022/11/08 02:49:22;;;;;;;64.03;31.45;;;7.60;99.90;;;;;;5098087;28;20036;-76
2022/11/08 02:51:51;;;;;;;52.20;29.83;;;7.50;99.90;;;;;;5102968;28;20202;-79
2022/11/08 02:54:18;;;;;;;49.53;29.48;;;7.50;99.90;;;;;;5103983;28;20035;-79
2022/11/08 02:56:47;;;;;;;56.35;30.27;;;7.50;99.90;;;;;;5102598;28;20036;-79
2022/11/08 02:59:14;;;;;;;52.20;27.33;;;7.70;99.90;;;;;;5103144;28;20068;-78
2022/11/08 03:01:42;;;;;;;43.65;26.42;;;7.70;99.90;;;;;;5102512;28;20056;-78
2022/11/08 03:04:09;;;;;;;46.22;26.13;;;7.60;99.90;;;;;;5103505;28;20036;-79
2022/11/08 03:06:37;;;;;;;48.40;27.45;;;7.60;99.90;;;;;;5103084;28;20036;-77
2022/11/08 03:09:04;;;;;;;42.35;24.67;;;7.60;99.90;;;;;;5102413;28;20054;-77
2022/11/08 03:11:32;;;;;;;41.60;25.08;;;7.60;99.90;;;;;;5102383;28;20103;-78
2022/11/08 03:14:00;;;;;;;46.38;26.17;;;7.50;99.90;;;;;;5102079;28;20063;-78
2022/11/08 03:16:28;;;;;;;45.40;26.55;;;7.50;99.90;;;;;;5103855;28;20111;-77
2022/11/08 03:18:55;;;;;;;52.22;28.00;;;7.40;99.90;;;;;;5103288;28;20044;-78
2022/11/08 03:21:22;;;;;;;47.33;27.45;;;7.40;99.90;;;;;;5085507;28;20044;-78
2022/11/08 03:23:50;;;;;;;52.08;26.20;;;7.30;99.90;;;;;;5084553;28;20040;-78
2022/11/08 03:26:17;;;;;;;49.15;28.20;;;7.30;99.90;;;;;;5084042;28;20410;-79
2022/11/08 03:28:44;;;;;;;51.33;29.33;;;7.30;99.90;;;;;;5101857;28;20039;-78
2022/11/08 03:31:13;;;;;;;51.92;28.42;;;7.40;99.90;;;;;;5102372;28;20067;-77
2022/11/08 03:33:40;;;;;;;52.08;26.88;;;7.40;99.90;;;;;;5103042;28;20119;-78
2022/11/08 03:36:08;;;;;;;51.47;28.67;;;7.40;99.90;;;;;;5102672;28;20479;-78
2022/11/08 03:38:35;;;;;;;54.20;30.42;;;7.30;99.90;;;;;;5100331;28;20054;-78
2022/11/08 03:41:03;;;;;;;56.20;29.83;;;7.30;99.90;;;;;;5100820;28;20479;-78
2022/11/08 03:43:30;;;;;;;53.92;28.30;;;7.30;99.90;;;;;;5103176;28;20498;-78
2022/11/08 03:45:57;;;;;;;49.80;27.50;;;7.30;99.90;;;;;;5102697;28;20039;-79
2022/11/08 03:48:26;;;;;;;51.78;27.67;;;7.30;99.90;;;;;;5101737;28;20067;-79
2022/11/08 03:50:53;;;;;;;57.10;27.77;;;7.30;99.90;;;;;;5102037;28;20043;-78
2022/11/08 03:53:21;;;;;;;63.97;28.92;;;7.40;99.90;;;;;;5102857;28;20101;-78
2022/11/08 03:55:48;;;;;;;54.40;28.95;;;7.40;99.90;;;;;;5102422;28;20048;-77
2022/11/08 03:58:16;;;;;;;56.40;28.88;;;7.40;99.90;;;;;;5100612;28;20027;-77
2022/11/08 04:00:43;;;;;;;73.00;28.85;;;7.40;99.90;;;;;;5101676;28;20040;-77
2022/11/08 04:03:10;;;;;;;120.43;29.02;;;7.40;99.90;;;;;;5102317;28;20465;-77
2022/11/08 04:05:39;;;;;;;73.45;27.45;;;7.30;99.90;;;;;;5100878;28;20058;-78
2022/11/08 04:08:06;;;;;;;61.38;30.33;;;7.20;99.90;;;;;;5102823;28;20095;-79
2022/11/08 04:10:34;;;;;;;61.33;29.08;;;7.20;99.90;;;;;;5081941;28;20048;-78
2022/11/08 04:15:51;;;;;;;58.00;31.75;;;7.00;99.90;;;;;;5102562;28;20458;-77
2022/11/08 04:21:21;;;;;;;64.88;29.40;;;7.00;99.90;;;;;;5098153;28;20120;-79
2022/11/08 04:23:49;;;;;;;56.75;30.85;;;6.90;99.90;;;;;;5102635;28;20458;-76
2022/11/08 04:26:17;;;;;;;92.40;29.10;;;6.90;99.90;;;;;;5100259;28;20043;-80
2022/11/08 04:28:45;;;;;;;89.10;27.23;;;7.00;99.90;;;;;;5101214;28;20036;-78
2022/11/08 04:31:14;;;;;;;181.63;30.33;;;6.90;99.90;;;;;;5101717;28;20475;-80
2022/11/08 04:33:42;;;;;;;74.35;26.88;;;6.80;99.90;;;;;;5100940;28;20048;-80
2022/11/08 04:36:13;;;;;;;66.78;27.35;;;6.80;99.90;;;;;;5100390;28;20498;-79
2022/11/08 04:38:40;;;;;;;119.05;29.33;;;6.80;99.90;;;;;;5100719;28;20144;-79
2022/11/08 04:41:10;;;;;;;59.78;27.38;;;6.80;99.90;;;;;;5101953;28;20063;-78
2022/11/08 04:43:38;;;;;;;57.88;27.75;;;6.80;99.90;;;;;;5100222;28;20522;-79
2022/11/08 04:46:06;;;;;;;62.28;28.60;;;6.80;99.90;;;;;;5101715;28;20047;-79
2022/11/08 04:48:34;;;;;;;66.65;28.05;;;6.80;99.90;;;;;;5101059;28;20040;-79
2022/11/08 04:51:06;;;;;;;60.83;28.08;;;6.80;99.90;;;;;;5081457;28;20134;-79
2022/11/08 04:53:35;;;;;;;49.08;26.98;;;6.70;99.90;;;;;;5099759;28;20044;-81
2022/11/08 04:56:04;;;;;;;61.15;26.17;;;6.60;99.90;;;;;;5100495;28;20115;-80
2022/11/08 04:58:34;;;;;;;76.43;26.42;;;6.70;99.90;;;;;;5101361;28;20085;-77
2022/11/08 05:01:03;;;;;;;95.40;25.33;;;6.70;99.90;;;;;;5104622;28;20040;-80
2022/11/08 05:03:30;;;;;;;60.35;24.42;;;6.60;99.90;;;;;;5116792;28;20036;-80
2022/11/08 05:06:01;;;;;;;43.47;24.27;;;6.50;99.90;;;;;;5117693;28;20247;-80
2022/11/08 05:08:28;;;;;;;57.05;24.85;;;6.40;99.90;;;;;;5110102;28;20047;-77
2022/11/08 05:11:02;;;;;;;60.28;25.35;;;6.40;99.90;;;;;;5100643;28;20044;-80
2022/11/08 05:13:29;;;;;;;52.28;26.52;;;6.40;99.90;;;;;;5101697;28;20644;-79
2022/11/08 05:16:01;;;;;;;61.30;24.08;;;6.40;99.90;;;;;;5083497;28;20487;-78
2022/11/08 05:18:28;;;;;;;75.03;26.23;;;6.40;99.90;;;;;;5101769;28;20040;-76
2022/11/08 05:23:41;;;;;;;134.18;29.95;;;6.30;99.90;;;;;;5101016;28;20130;-78
2022/11/08 05:26:10;;;;;;;66.70;25.75;;;6.30;99.90;;;;;;5099748;28;20063;-79
2022/11/08 05:28:39;;;;;;;53.88;25.95;;;6.20;99.90;;;;;;5101091;28;20545;-78
2022/11/08 05:31:07;;;;;;;75.40;26.08;;;6.20;99.90;;;;;;5099268;28;20068;-78
2022/11/08 05:33:35;;;;;;;66.85;26.17;;;6.30;99.90;;;;;;5099456;28;20052;-77
2022/11/08 05:36:02;;;;;;;71.55;33.53;;;6.30;99.90;;;;;;5100207;28;20125;-79
2022/11/08 05:38:31;;;;;;;81.95;35.50;;;6.20;99.90;;;;;;5099479;28;20036;-78
2022/11/08 05:41:03;;;;;;;101.30;43.22;;;6.20;99.90;;;;;;5099252;28;20040;-79
2022/11/08 05:43:32;;;;;;;80.22;40.53;;;6.20;99.90;;;;;;5100025;28;20050;-77
2022/11/08 05:46:00;;;;;;;88.15;46.47;;;6.10;99.90;;;;;;5099619;28;20093;-79
2022/11/08 05:48:27;;;;;;;70.25;34.35;;;6.10;99.90;;;;;;5082772;28;20044;-77
2022/11/08 05:50:54;;;;;;;88.88;44.72;;;6.10;99.90;;;;;;5081822;28;20037;-78
2022/11/08 05:53:22;;;;;;;70.55;38.40;;;6.20;99.90;;;;;;5099691;28;20040;-79
2022/11/08 05:55:49;;;;;;;83.97;40.33;;;6.20;99.90;;;;;;5100482;28;20106;-79
2022/11/08 05:58:17;;;;;;;71.75;38.20;;;6.20;99.90;;;;;;5099368;28;20050;-78
2022/11/08 06:00:46;;;;;;;61.83;32.70;;;6.10;99.90;;;;;;5100247;28;20154;-80
2022/11/08 06:03:13;;;;;;;60.92;28.85;;;6.20;99.90;;;;;;5099845;28;20487;-79
2022/11/08 06:05:40;;;;;;;51.72;28.65;;;6.10;99.90;;;;;;5100294;28;20135;-80
2022/11/08 06:08:08;;;;;;;61.88;31.65;;;6.10;99.90;;;;;;5083083;28;20092;-79
2022/11/08 06:10:36;;;;;;;115.32;36.22;;;6.20;99.90;;;;;;5104986;28;20040;-81
2022/11/08 06:13:03;;;;;;;71.82;33.38;;;6.20;99.90;;;;;;5117663;28;20051;-80
2022/11/08 06:15:30;;;;;;;59.63;34.65;;;6.10;99.90;;;;;;5116927;28;20035;-78
2022/11/08 06:18:03;;;;;;;62.85;34.83;;;6.10;99.90;;;;;;5096621;28;20052;-80
2022/11/08 06:20:31;;;;;;;49.28;27.48;;;6.20;99.90;;;;;;5113894;28;20098;-78
2022/11/08 06:22:58;;;;;;;47.05;26.98;;;6.20;99.90;;;;;;5100704;28;20538;-79
2022/11/08 06:25:25;;;;;;;54.08;27.95;;;6.30;99.90;;;;;;5092422;28;20190;-80
2022/11/08 06:27:53;;;;;;;50.53;27.38;;;6.20;99.90;;;;;;5079603;28;20032;-82
2022/11/08 06:30:20;;;;;;;44.13;26.13;;;6.20;99.90;;;;;;5077926;28;20044;-80
2022/11/08 06:32:47;;;;;;;39.55;25.35;;;6.30;99.90;;;;;;5077317;28;20047;-78
2022/11/08 06:35:16;;;;;;;31.85;21.35;;;6.30;99.90;;;;;;5078512;28;20086;-79
2022/11/08 06:37:44;;;;;;;50.58;26.80;;;6.30;99.90;;;;;;5060869;28;20074;-79
2022/11/08 06:40:11;;;;;;;42.22;25.73;;;6.30;99.90;;;;;;5077825;28;20123;-79
2022/11/08 06:42:39;;;;;;;44.13;27.58;;;6.30;99.90;;;;;;5081538;28;20400;-77
2022/11/08 06:45:07;;;;;;;43.42;25.80;;;6.40;99.90;;;;;;5085041;28;20131;-78
2022/11/08 06:47:34;;;;;;;48.55;26.50;;;6.60;99.90;;;;;;5079893;28;20040;-77
2022/11/08 06:50:02;;;;;;;61.58;29.80;;;6.70;99.90;;;;;;5069178;28;20051;-80
2022/11/08 06:52:30;;;;;;;51.75;30.17;;;6.80;99.90;;;;;;5089204;28;20052;-78
2022/11/08 06:54:58;;;;;;;49.63;29.15;;;7.00;99.90;;;;;;5087020;28;20044;-78
2022/11/08 06:57:25;;;;;;;51.80;28.98;;;7.10;99.90;;;;;;5087800;28;20465;-79
2022/11/08 06:59:52;;;;;;;44.15;27.42;;;7.20;99.90;;;;;;5081292;28;20051;-78
2022/11/08 07:02:20;;;;;;;50.42;28.02;;;7.30;99.90;;;;;;5077115;28;20277;-79
2022/11/08 07:04:47;;;;;;;48.63;28.85;;;7.50;99.90;;;;;;5060593;28;20058;-78
2022/11/08 07:07:14;;;;;;;51.13;28.60;;;7.60;99.90;;;;;;5079655;28;20036;-78
2022/11/08 07:09:43;;;;;;;57.55;32.42;;;7.60;99.90;;;;;;5078168;28;20040;-79
2022/11/08 07:12:10;;;;;;;56.00;33.35;;;7.70;99.90;;;;;;5076453;28;20036;-79
2022/11/08 07:14:38;;;;;;;59.90;33.60;;;7.80;99.90;;;;;;5078107;28;20039;-78
2022/11/08 07:17:05;;;;;;;65.80;35.47;;;7.70;99.90;;;;;;5079438;28;20040;-78
2022/11/08 07:19:32;;;;;;;63.88;37.28;;;7.70;99.90;;;;;;5078174;28;20454;-79
2022/11/08 07:22:00;;;;;;;74.22;38.60;;;7.60;99.90;;;;;;5079123;28;20047;-78
2022/11/08 07:24:27;;;;;;;64.35;38.90;;;7.50;99.90;;;;;;5061865;28;20060;-79
2022/11/08 07:26:56;;;;;;;74.20;39.63;;;7.60;99.90;;;;;;5086187;28;20048;-77
2022/11/08 07:29:23;;;;;;;66.15;38.63;;;7.50;99.90;;;;;;5098924;28;20352;-78
2022/11/08 07:31:51;;;;;;;66.57;38.90;;;7.50;99.90;;;;;;5096304;28;20032;-78
2022/11/08 07:34:18;;;;;;;70.93;40.85;;;7.50;99.90;;;;;;5096645;28;20511;-79
2022/11/08 07:36:45;;;;;;;68.93;41.05;;;7.60;99.90;;;;;;5092204;28;20047;-77
2022/11/08 07:39:13;;;;;;;84.60;44.85;;;7.60;99.90;;;;;;5101758;28;20368;-78
2022/11/08 07:41:40;;;;;;;76.68;43.28;;;7.80;99.90;;;;;;5099792;28;20527;-77
2022/11/08 07:44:09;;;;;;;75.78;42.13;;;8.00;99.90;;;;;;5103478;28;20502;-78
2022/11/08 07:46:36;;;;;;;74.43;43.22;;;8.10;99.90;;;;;;5101239;28;20085;-78
2022/11/08 07:49:03;;;;;;;90.97;51.15;;;8.10;99.90;;;;;;5101483;28;20490;-77
2022/11/08 07:51:31;;;;;;;73.97;46.40;;;8.10;99.90;;;;;;5102453;28;20039;-78
2022/11/08 07:53:58;;;;;;;88.35;50.72;;;8.10;99.90;;;;;;5103031;28;20490;-79
2022/11/08 07:56:25;;;;;;;91.88;52.15;;;8.10;99.90;;;;;;5098575;28;20047;-80
2022/11/08 07:58:53;;;;;;;98.32;54.78;;;8.20;99.90;;;;;;5100558;28;20560;-77
2022/11/08 08:01:21;;;;;;;91.70;53.17;;;8.20;99.90;;;;;;5100759;28;20032;-77
2022/11/08 08:03:49;;;;;;;99.78;56.95;;;8.30;99.90;;;;;;5103875;28;20051;-78
2022/11/08 08:06:16;;;;;;;97.18;56.35;;;8.30;99.90;;;;;;5102558;28;20050;-79
2022/11/08 08:08:43;;;;;;;99.32;58.47;;;8.40;99.90;;;;;;5103027;28;20051;-80
2022/11/08 08:11:11;;;;;;;100.40;56.80;;;8.50;99.90;;;;;;5102296;28;20518;-78
2022/11/08 08:13:38;;;;;;;102.80;61.78;;;8.60;99.90;;;;;;5102696;28;20039;-85
2022/11/08 08:16:06;;;;;;;91.50;55.53;;;8.70;99.90;;;;;;5100908;28;20036;-78
2022/11/08 08:18:36;;;;;;;94.70;58.63;;;8.70;99.90;;;;;;5102005;28;20063;-77
2022/11/08 08:21:04;;;;;;;99.18;58.40;;;8.70;99.90;;;;;;5101058;28;20040;-78
2022/11/08 08:23:31;;;;;;;107.30;66.45;;;8.70;99.90;;;;;;5102882;28;20048;-78
2022/11/08 08:26:01;;;;;;;108.03;66.00;;;8.80;99.90;;;;;;5100490;28;20044;-79
2022/11/08 08:28:28;;;;;;;109.28;66.55;;;8.80;99.90;;;;;;5101098;28;20408;-76
2022/11/08 08:30:55;;;;;;;105.45;65.90;;;8.80;99.90;;;;;;5101544;28;20109;-77
2022/11/08 08:33:23;;;;;;;111.88;67.18;;;9.00;99.90;;;;;;5101784;28;20078;-76
2022/11/08 08:35:52;;;;;;;104.70;63.58;;;9.20;99.90;;;;;;5101791;28;20048;-77
2022/11/08 08:38:20;;;;;;;112.10;66.18;;;9.40;99.90;;;;;;5101265;28;20055;-78
2022/11/08 08:40:47;;;;;;;111.85;66.88;;;9.60;99.90;;;;;;5100328;28;20052;-78
2022/11/08 08:43:14;;;;;;;106.18;61.58;;;9.70;99.90;;;;;;5101782;28;20564;-79
2022/11/08 08:45:42;;;;;;;100.50;61.55;;;9.90;99.90;;;;;;5101699;28;20032;-77
2022/11/08 08:48:09;;;;;;;106.35;61.88;;;10.10;99.90;;;;;;5090205;28;20040;-78
2022/11/08 08:50:37;;;;;;;94.13;58.15;;;10.20;99.90;;;;;;5102604;28;20098;-78
2022/11/08 08:53:06;;;;;;;88.72;57.53;;;10.40;99.90;;;;;;5101049;28;20043;-76
2022/11/08 08:55:35;;;;;;;90.80;55.65;;;10.60;99.90;;;;;;5099672;28;20089;-79
2022/11/08 08:58:02;;;;;;;92.22;55.03;;;10.70;99.90;;;;;;5100674;28;20067;-79
2022/11/08 09:00:30;;;;;;;88.38;53.25;;;10.90;99.90;;;;;;5088975;28;20055;-77
2022/11/08 09:03:02;;;;;;;81.20;51.30;;;11.10;99.90;;;;;;5100897;28;20582;-78
2022/11/08 09:05:30;;;;;;;81.60;52.28;;;11.20;99.90;;;;;;5101476;28;20035;-77
2022/11/08 09:07:58;;;;;;;84.60;48.75;;;11.30;99.90;;;;;;5101066;28;20051;-78
2022/11/08 09:10:27;;;;;;;79.40;50.92;;;11.50;99.90;;;;;;5099873;28;20043;-79
2022/11/08 09:12:54;;;;;;;80.60;50.65;;;11.60;99.90;;;;;;5091416;28;20054;-78
2022/11/08 09:15:22;;;;;;;81.13;48.85;;;11.80;99.90;;;;;;5101088;28;20092;-77
2022/11/08 09:17:49;;;;;;;69.03;43.33;;;11.90;99.90;;;;;;5100339;28;20036;-78
2022/11/08 09:20:17;;;;;;;63.25;40.53;;;12.10;99.90;;;;;;5100843;28;20113;-76
2022/11/08 09:22:44;;;;;;;66.55;39.80;;;12.30;99.90;;;;;;5099527;28;20113;-78
2022/11/08 09:25:11;;;;;;;65.75;39.60;;;12.50;99.90;;;;;;5099709;28;20688;-78
2022/11/08 09:27:40;;;;;;;64.65;40.28;;;12.60;99.90;;;;;;5102045;28;20118;-76
2022/11/08 09:30:08;;;;;;;66.22;41.00;;;12.60;99.90;;;;;;5099233;28;20114;-77
2022/11/08 09:32:36;;;;;;;67.55;43.95;;;12.70;99.90;;;;;;5100258;28;20051;-77
2022/11/08 09:35:03;;;;;;;69.05;45.03;;;12.90;99.90;;;;;;5101011;28;20048;-77
2022/11/08 09:37:30;;;;;;;71.75;45.33;;;13.00;99.90;;;;;;5098968;28;20042;-78
2022/11/08 09:39:58;;;;;;;72.47;44.38;;;13.10;99.90;;;;;;5099858;28;20032;-78
2022/11/08 09:42:38;;;;;;;70.20;46.40;;;13.20;99.90;;;;;;5099989;28;20039;-78
2022/11/08 09:45:27;;;;;;;64.65;44.25;;;13.30;99.90;;;;;;5099582;28;20052;-76
2022/11/08 09:47:58;;;;;;;61.85;40.33;;;13.40;99.90;;;;;;5102105;28;20040;-77
2022/11/08 09:50:31;;;;;;;30.73;20.10;;;13.50;99.90;;;;;;5115381;28;20047;-76
2022/11/08 09:53:09;;;;;;;51.00;32.00;;;13.70;99.90;;;;;;5107016;28;20115;-78
2022/11/08 09:55:40;;;;;;;47.83;31.13;;;13.80;99.90;;;;;;5100870;28;20046;-75
2022/11/08 09:58:24;;;;;;;18.92;13.35;;;13.90;99.90;;;;;;5100608;28;20075;-78
2022/11/08 10:00:53;;;;;;;15.73;11.13;;;14.00;99.90;;;;;;5099925;28;20040;-78
2022/11/08 10:03:24;;;;;;;11.82;9.65;;;14.20;99.90;;;;;;5100305;28;20036;-76
2022/11/08 10:06:29;;;;;;;13.70;9.68;;;14.30;99.90;;;;;;5100722;28;20039;-77
2022/11/08 10:09:10;;;;;;;12.98;10.57;;;14.40;99.90;;;;;;5099498;28;20043;-77
2022/11/08 10:11:53;;;;;;;14.85;10.13;;;14.50;99.90;;;;;;5100562;28;20043;-76
2022/11/08 10:14:39;;;;;;;15.50;9.52;;;14.60;99.90;;;;;;5100312;28;20047;-77
2022/11/08 10:17:28;;;;;;;13.55;10.57;;;14.80;99.90;;;;;;5097884;28;20043;-76
2022/11/08 10:20:10;;;;;;;15.40;10.80;;;14.90;99.90;;;;;;5099113;28;20040;-77
2022/11/08 10:22:48;;;;;;;13.23;9.73;;;14.90;99.90;;;;;;5107569;28;20032;-76
2022/11/08 10:25:23;;;;;;;15.02;10.45;;;14.90;99.90;;;;;;5100867;28;20067;-76
2022/11/08 10:27:53;;;;;;;14.90;10.80;;;15.00;99.90;;;;;;5100533;28;20042;-75
2022/11/08 10:30:24;;;;;;;11.70;8.80;;;15.10;99.90;;;;;;5098652;28;20039;-76
2022/11/08 10:32:56;;;;;;;17.02;11.95;;;15.10;99.90;;;;;;5090462;28;20125;-77
2022/11/08 10:35:30;;;;;;;29.02;20.50;;;15.10;99.90;;;;;;5098898;28;20036;-77
2022/11/08 10:37:59;;;;;;;46.03;25.50;;;15.30;99.90;;;;;;5089610;28;20048;-78
2022/11/08 10:40:40;;;;;;;63.40;35.08;;;15.20;99.90;;;;;;5098284;28;20040;-76
2022/11/08 10:43:11;;;;;;;58.05;35.33;;;15.30;99.90;;;;;;5088948;28;20078;-78
2022/11/08 10:45:39;;;;;;;56.53;34.88;;;15.30;99.90;;;;;;5098436;28;20109;-76
2022/11/08 10:48:11;;;;;;;46.83;31.00;;;15.40;99.90;;;;;;5098612;28;20086;-77
2022/11/08 10:50:44;;;;;;;21.83;15.32;;;15.40;99.90;;;;;;5098828;28;20050;-77
2022/11/08 10:53:18;;;;;;;23.42;16.48;;;15.40;99.90;;;;;;5098330;28;20123;-76
2022/11/08 10:55:50;;;;;;;17.13;13.27;;;15.40;99.90;;;;;;5099987;28;20089;-76
2022/11/08 10:58:32;;;;;;;31.67;18.75;;;15.50;99.90;;;;;;5098544;28;20048;-77
2022/11/08 11:01:01;;;;;;;17.95;10.90;;;15.60;99.90;;;;;;5098724;28;20086;-77
2022/11/08 11:03:30;;;;;;;23.50;16.42;;;15.60;99.90;;;;;;5098389;28;20047;-78
2022/11/08 11:06:02;;;;;;;11.50;9.45;;;15.60;99.90;;;;;;5098711;28;20040;-75
2022/11/08 11:08:31;;;;;;;11.43;9.07;;;15.70;99.90;;;;;;5098230;28;20063;-76
2022/11/08 11:11:20;;;;;;;12.70;9.30;;;15.70;99.90;;;;;;5099330;28;20474;-77
2022/11/08 11:14:08;;;;;;;15.98;12.27;;;15.70;99.90;;;;;;5103105;28;20143;-76
2022/11/08 11:16:36;;;;;;;23.33;17.33;;;15.70;99.90;;;;;;5102804;28;20063;-78
2022/11/08 11:19:06;;;;;;;15.60;11.57;;;15.80;99.90;;;;;;5102516;28;20047;-76
2022/11/08 11:21:38;;;;;;;14.88;9.98;;;15.90;99.90;;;;;;5102953;28;20101;-76
2022/11/08 11:24:10;;;;;;;11.77;9.77;;;15.90;99.90;;;;;;5102505;28;20060;-75
2022/11/08 11:26:43;;;;;;;11.77;9.23;;;16.00;99.90;;;;;;5104076;28;20055;-77
2022/11/08 11:29:28;;;;;;;12.68;9.52;;;16.00;99.90;;;;;;5102320;28;20059;-76
2022/11/08 11:31:56;;;;;;;13.07;8.73;;;16.20;99.90;;;;;;5084295;28;20074;-76
2022/11/08 11:34:47;;;;;;;15.07;12.75;;;16.10;99.90;;;;;;5102340;28;20089;-76
2022/11/08 11:37:28;;;;;;;14.02;10.85;;;16.10;99.90;;;;;;5102979;28;20615;-76
2022/11/08 11:40:06;;;;;;;13.65;9.57;;;16.10;99.90;;;;;;5101127;28;20036;-78
2022/11/08 11:42:42;;;;;;;14.82;10.50;;;16.10;99.90;;;;;;5102830;28;20544;-76
2022/11/08 11:45:17;;;;;;;12.73;10.00;;;16.10;99.90;;;;;;5102130;28;20483;-77
2022/11/08 11:47:46;;;;;;;11.95;9.80;;;16.10;99.90;;;;;;5102343;28;20036;-77
2022/11/08 11:50:33;;;;;;;12.57;10.27;;;16.10;99.90;;;;;;5091944;28;20051;-76
2022/11/08 11:53:05;;;;;;;14.27;10.02;;;16.30;99.90;;;;;;5102040;28;20040;-77
2022/11/08 11:55:47;;;;;;;13.65;8.88;;;16.30;99.90;;;;;;5100107;28;20403;-77
2022/11/08 11:58:29;;;;;;;12.68;9.90;;;16.40;99.90;;;;;;5101692;28;20035;-75
2022/11/08 12:01:03;;;;;;;14.32;10.50;;;16.30;99.90;;;;;;5102784;28;20043;-78
2022/11/08 12:03:53;;;;;;;10.82;8.52;;;16.40;99.90;;;;;;5100642;28;20111;-76
2022/11/08 12:06:31;;;;;;;11.52;8.52;;;16.40;99.90;;;;;;5101183;28;20047;-75
2022/11/08 12:09:17;;;;;;;12.75;9.98;;;16.40;99.90;;;;;;5100111;28;20437;-76
2022/11/08 12:11:58;;;;;;;14.80;11.10;;;16.40;99.90;;;;;;5100912;28;20044;-76
2022/11/08 12:14:46;;;;;;;13.80;9.63;;;16.50;99.90;;;;;;5091224;28;20514;-75
2022/11/08 12:17:40;;;;;;;12.55;10.25;;;16.60;99.90;;;;;;5098654;28;20036;-76
2022/11/08 12:20:33;;;;;;;16.65;11.80;;;16.60;99.90;;;;;;5094265;28;20052;-74
2022/11/08 12:23:27;;;;;;;17.67;14.80;;;16.60;99.90;;;;;;5100071;28;20039;-77
2022/11/08 12:26:02;;;;;;;17.13;13.90;;;16.70;99.90;;;;;;5094030;28;20048;-76
2022/11/08 12:28:46;;;;;;;17.63;11.80;;;16.70;99.90;;;;;;5095957;28;21262;-75
2022/11/08 12:31:25;;;;;;;18.25;11.30;;;16.70;99.90;;;;;;5096679;28;20105;-75
2022/11/08 12:34:03;;;;;;;12.35;8.27;;;16.70;99.90;;;;;;5100709;28;20062;-78
2022/11/08 12:36:36;;;;;;;11.15;9.35;;;16.70;99.90;;;;;;5100918;28;20057;-76
2022/11/08 12:39:17;;;;;;;12.48;8.85;;;16.70;99.90;;;;;;5102111;28;20040;-75
2022/11/08 12:41:54;;;;;;;12.52;8.85;;;16.80;99.90;;;;;;5100306;28;20040;-77
2022/11/08 12:44:39;;;;;;;27.65;14.40;;;16.80;99.90;;;;;;5101504;28;20056;-75
2022/11/08 12:47:19;;;;;;;18.05;12.98;;;16.90;99.90;;;;;;5090402;28;20055;-77
2022/11/08 12:49:56;;;;;;;20.00;15.18;;;16.90;99.90;;;;;;5087456;28;20577;-75
2022/11/08 12:52:41;;;;;;;30.10;15.40;;;16.80;99.90;;;;;;5091851;28;20048;-77
2022/11/08 12:55:21;;;;;;;21.45;13.68;;;16.90;99.90;;;;;;5100163;28;20043;-76
2022/11/08 12:57:51;;;;;;;18.80;11.63;;;16.90;99.90;;;;;;5107570;28;20047;-77
2022/11/08 13:00:19;;;;;;;20.10;12.52;;;17.00;99.90;;;;;;5100954;28;20043;-78
2022/11/08 13:03:00;;;;;;;23.50;16.55;;;16.90;99.90;;;;;;5100333;28;20117;-77
2022/11/08 13:05:33;;;;;;;27.05;20.42;;;16.90;99.90;;;;;;5099960;28;20122;-75
2022/11/08 13:08:07;;;;;;;16.50;11.35;;;17.00;99.90;;;;;;5089624;28;20101;-76